עמוד ראשי
METAR-TAF:

METAR-TAF

שדות תעופה :

טאיף, ערב הסעודית

קו רוחב: 21-29N, קו אורך: 040-33E, גובה: 1478מטר

תצפית מזג אוויר נוכחית

הדו"ח נערך לפני 37דקות, בשעה 19:00 UTC
רוח 6קשר מכיוון דרום
טמפרטורת 26 צלסיוס
לחות 37%
לחץ 1021 hPa
ראות 10 קילומטר או יותר
מעט עננים בגובה 2500רגל , קומולונימבוס.
עננים בינוניים בגובה 3000רגל
סופת רעמים,

METAR: OETF 131900Z 17006KT 9999 TS FEW025CB BKN030 26/10 Q1021 RERA NOSIG

זמן: 22:37 (19:37 UTC)

תחזית

הדו"ח נערך לפני 8 שעות ו 37דקות, בשעה 11:00 UTC
תחזית בתוקף מ 13 ב 12 UTC עד 14 ב 18 UTC
רוח 14קשר מכיוון דרום/דרום-מערב
ראות 10 קילומטר או יותר
עננים פזורים בגובה 3000רגל
זמנית מ -
13 ב 12 UTC עד 13 ב 20 UTC
ראות: 6000מטר
מעט עננים בגובה 2500רגל , קומולונימבוס.
סופת רעמים, גשם
יעשה מ
13 ב 20 UTC עד 13 ב 22 UTC
רוח 7קשר מכיוון מערב
יעשה מ
14 ב 04 UTC עד 14 ב 06 UTC
רוח 10קשר מכיוון צפון

TAF: OETF 131100Z 1312/1418 20014KT 9999 SCT030 TEMPO 1312/1320 6000 TSRA FEW025CB BECMG 1320/1322 27007KT BECMG 1404/1406 35010KT

תצפיות ותחזיות מזג אוויר לגבי יותר מ- 4,000 שדות תעופה ברחבי העולם. דוחות METAR ו- TAF.

התחנות הזמינות מסומנות בנקודות צהובות ואדומות על גבי המפה.

העבר את העכבר לנקודה הצבעונית על מנת לראות את שם התחנה.

לאחר מכן, לחץ כדי לראות את תוכן ואת תחזיות מזג האוויר.

כדי לשנות את המפה: לחץ על הכפתורים הירוקים עם הפלוס השחור כדי להתקרב; על הכפתור הירוק עם המקף כדי להתרחק; או בחיצים הירוקים למפות סמוכות.


METAR-TAF: